Agua Dulce, California
Current Conditions -  °F | °C
As of 1:56 PM on Saturday 25 Oct 2014 (Local Time) from KWJF Reporting Station
Clear Clear  
Wind Chill: 26°   Ceiling: Unl
Heat Index: 26°   Visibility: 10mi
Dew Point:   Wind: 20mph
Humidity: 22%   Direction: 250°WSW
Pressure: 30.06"   Gusts: 26mph
Location:  34.513°N, 118.402°W
Report Text: KWJF 252056Z 25017G23KT 10SM CLR 26/03 A3006 RMK AO2 SLP165 T02610028 58011
Loading
Personal Weather Stations






























Interactive Weather Map
Tropical Storm Tracking
New forecast layout! Learn more

10-Day Weather Forecast

Advertisements
Track Severe Weather on mobile